sensor_id;sensor_type;location;lat;lon;timestamp;P1;durP1;ratioP1;P2;durP2;ratioP2
5058;SDS011;2548;52.050;11.036;2022-11-03T00:01:07;8.68;;;4.97;;
5058;SDS011;2548;52.050;11.036;2022-11-03T00:03:34;11.15;;;3.80;;
5058;SDS011;2548;52.050;11.036;2022-11-03T00:06:03;22.08;;;4.45;;
5058;SDS011;2548;52.050;11.036;2022-11-03T00:08:31;11.02;;;4.05;;
5058;SDS011;2548;52.050;11.036;2022-11-03T00:11:03;8.38;;;3.53;;
5058;SDS011;2548;52.050;11.036;2022-11-03T00:13:32;7.47;;;2.90;;
5058;SDS011;2548;52.050;11.036;2022-11-03T00:16:00;8.02;;;3.95;;
5058;SDS011;2548;52.050;11.036;2022-11-03T00:18:27;16.63;;;3.60;;
5058;SDS011;2548;52.050;11.036;2022-11-03T00:20:58;7.15;;;2.83;;
5058;SDS011;2548;52.050;11.036;2022-11-03T00:23:29;7.97;;;2.97;;
5058;SDS011;2548;52.050;11.036;2022-11-03T00:26:04;10.93;;;3.00;;
5058;SDS011;2548;52.050;11.036;2022-11-03T00:28:33;4.78;;;3.10;;
5058;SDS011;2548;52.050;11.036;2022-11-03T00:31:04;11.82;;;4.05;;
5058;SDS011;2548;52.050;11.036;2022-11-03T00:33:33;10.85;;;4.25;;
5058;SDS011;2548;52.050;11.036;2022-11-03T00:36:01;9.40;;;3.42;;
5058;SDS011;2548;52.050;11.036;2022-11-03T00:38:30;5.05;;;3.17;;
5058;SDS011;2548;52.050;11.036;2022-11-03T00:40:58;13.48;;;3.40;;
5058;SDS011;2548;52.050;11.036;2022-11-03T00:43:28;9.95;;;3.55;;
5058;SDS011;2548;52.050;11.036;2022-11-03T00:45:57;16.60;;;4.15;;
5058;SDS011;2548;52.050;11.036;2022-11-03T00:48:24;7.22;;;3.30;;
5058;SDS011;2548;52.050;11.036;2022-11-03T00:50:58;10.82;;;3.22;;
5058;SDS011;2548;52.050;11.036;2022-11-03T00:53:27;9.02;;;3.72;;
5058;SDS011;2548;52.050;11.036;2022-11-03T00:55:57;16.35;;;3.72;;
5058;SDS011;2548;52.050;11.036;2022-11-03T00:58:24;10.85;;;3.08;;
5058;SDS011;2548;52.050;11.036;2022-11-03T01:00:57;6.30;;;2.95;;
5058;SDS011;2548;52.050;11.036;2022-11-03T01:03:25;8.90;;;2.90;;
5058;SDS011;2548;52.050;11.036;2022-11-03T01:05:53;16.88;;;4.28;;
5058;SDS011;2548;52.050;11.036;2022-11-03T01:08:38;6.43;;;2.90;;
5058;SDS011;2548;52.050;11.036;2022-11-03T01:11:07;8.93;;;2.85;;
5058;SDS011;2548;52.050;11.036;2022-11-03T01:13:54;3.65;;;2.92;;
5058;SDS011;2548;52.050;11.036;2022-11-03T01:16:22;11.57;;;3.25;;
5058;SDS011;2548;52.050;11.036;2022-11-03T01:18:49;12.07;;;3.85;;
5058;SDS011;2548;52.050;11.036;2022-11-03T01:21:17;6.30;;;2.90;;
5058;SDS011;2548;52.050;11.036;2022-11-03T01:23:45;6.75;;;4.13;;
5058;SDS011;2548;52.050;11.036;2022-11-03T01:26:14;23.17;;;3.47;;
5058;SDS011;2548;52.050;11.036;2022-11-03T01:28:42;8.32;;;3.30;;
5058;SDS011;2548;52.050;11.036;2022-11-03T01:31:11;7.30;;;3.38;;
5058;SDS011;2548;52.050;11.036;2022-11-03T01:33:40;8.68;;;2.90;;
5058;SDS011;2548;52.050;11.036;2022-11-03T01:36:10;11.38;;;2.90;;
5058;SDS011;2548;52.050;11.036;2022-11-03T01:38:39;5.65;;;2.53;;
5058;SDS011;2548;52.050;11.036;2022-11-03T01:41:07;5.90;;;3.05;;
5058;SDS011;2548;52.050;11.036;2022-11-03T01:43:38;6.53;;;2.50;;
5058;SDS011;2548;52.050;11.036;2022-11-03T01:46:07;3.33;;;2.30;;
5058;SDS011;2548;52.050;11.036;2022-11-03T01:48:45;6.55;;;2.70;;
5058;SDS011;2548;52.050;11.036;2022-11-03T01:51:19;5.55;;;3.08;;
5058;SDS011;2548;52.050;11.036;2022-11-03T01:53:49;4.53;;;2.85;;
5058;SDS011;2548;52.050;11.036;2022-11-03T01:56:19;6.38;;;2.90;;
5058;SDS011;2548;52.050;11.036;2022-11-03T01:58:50;8.95;;;2.42;;
5058;SDS011;2548;52.050;11.036;2022-11-03T02:01:20;9.40;;;2.90;;
5058;SDS011;2548;52.050;11.036;2022-11-03T02:03:48;3.70;;;2.17;;
5058;SDS011;2548;52.050;11.036;2022-11-03T02:06:20;6.13;;;2.50;;
5058;SDS011;2548;52.050;11.036;2022-11-03T02:08:50;6.60;;;1.92;;
5058;SDS011;2548;52.050;11.036;2022-11-03T02:11:21;13.02;;;3.08;;
5058;SDS011;2548;52.050;11.036;2022-11-03T02:14:11;6.15;;;2.33;;
5058;SDS011;2548;52.050;11.036;2022-11-03T02:16:39;3.75;;;2.40;;
5058;SDS011;2548;52.050;11.036;2022-11-03T02:19:09;9.15;;;2.83;;
5058;SDS011;2548;52.050;11.036;2022-11-03T02:21:47;19.90;;;2.35;;
5058;SDS011;2548;52.050;11.036;2022-11-03T02:24:23;3.72;;;1.95;;
5058;SDS011;2548;52.050;11.036;2022-11-03T02:26:58;11.85;;;2.40;;
5058;SDS011;2548;52.050;11.036;2022-11-03T02:29:25;10.27;;;2.65;;
5058;SDS011;2548;52.050;11.036;2022-11-03T02:31:54;9.52;;;2.63;;
5058;SDS011;2548;52.050;11.036;2022-11-03T02:34:29;20.85;;;2.72;;
5058;SDS011;2548;52.050;11.036;2022-11-03T02:37:04;4.90;;;2.17;;
5058;SDS011;2548;52.050;11.036;2022-11-03T02:39:36;7.95;;;3.42;;
5058;SDS011;2548;52.050;11.036;2022-11-03T02:42:08;6.68;;;2.65;;
5058;SDS011;2548;52.050;11.036;2022-11-03T02:44:37;11.25;;;2.00;;
5058;SDS011;2548;52.050;11.036;2022-11-03T02:47:08;6.30;;;2.10;;
5058;SDS011;2548;52.050;11.036;2022-11-03T02:49:37;3.22;;;2.30;;
5058;SDS011;2548;52.050;11.036;2022-11-03T02:52:05;7.47;;;2.60;;
5058;SDS011;2548;52.050;11.036;2022-11-03T02:54:53;12.20;;;2.65;;
5058;SDS011;2548;52.050;11.036;2022-11-03T02:57:24;3.30;;;2.15;;
5058;SDS011;2548;52.050;11.036;2022-11-03T02:59:56;4.03;;;2.30;;
5058;SDS011;2548;52.050;11.036;2022-11-03T03:02:31;8.10;;;2.83;;
5058;SDS011;2548;52.050;11.036;2022-11-03T03:05:06;6.07;;;2.42;;
5058;SDS011;2548;52.050;11.036;2022-11-03T03:07:36;7.75;;;2.80;;
5058;SDS011;2548;52.050;11.036;2022-11-03T03:10:07;5.57;;;2.05;;
5058;SDS011;2548;52.050;11.036;2022-11-03T03:12:40;7.32;;;3.60;;
5058;SDS011;2548;52.050;11.036;2022-11-03T03:15:12;5.15;;;2.38;;
5058;SDS011;2548;52.050;11.036;2022-11-03T03:17:43;7.82;;;2.67;;
5058;SDS011;2548;52.050;11.036;2022-11-03T03:20:17;13.43;;;3.55;;
5058;SDS011;2548;52.050;11.036;2022-11-03T03:22:50;7.30;;;2.47;;
5058;SDS011;2548;52.050;11.036;2022-11-03T03:25:22;7.88;;;2.42;;
5058;SDS011;2548;52.050;11.036;2022-11-03T03:27:54;8.60;;;2.50;;
5058;SDS011;2548;52.050;11.036;2022-11-03T03:30:27;4.65;;;2.40;;
5058;SDS011;2548;52.050;11.036;2022-11-03T03:32:56;6.07;;;2.60;;
5058;SDS011;2548;52.050;11.036;2022-11-03T03:35:27;12.68;;;2.60;;
5058;SDS011;2548;52.050;11.036;2022-11-03T03:37:57;4.20;;;1.67;;
5058;SDS011;2548;52.050;11.036;2022-11-03T03:40:28;6.38;;;2.40;;
5058;SDS011;2548;52.050;11.036;2022-11-03T03:43:00;12.77;;;3.00;;
5058;SDS011;2548;52.050;11.036;2022-11-03T03:45:28;15.98;;;2.35;;
5058;SDS011;2548;52.050;11.036;2022-11-03T03:47:57;8.30;;;2.58;;
5058;SDS011;2548;52.050;11.036;2022-11-03T03:50:25;9.57;;;2.58;;
5058;SDS011;2548;52.050;11.036;2022-11-03T03:52:56;5.68;;;2.40;;
5058;SDS011;2548;52.050;11.036;2022-11-03T03:55:28;9.15;;;2.72;;
5058;SDS011;2548;52.050;11.036;2022-11-03T03:58:01;6.90;;;2.60;;
5058;SDS011;2548;52.050;11.036;2022-11-03T04:00:30;7.63;;;2.60;;
5058;SDS011;2548;52.050;11.036;2022-11-03T04:02:58;6.57;;;3.38;;
5058;SDS011;2548;52.050;11.036;2022-11-03T04:05:25;10.50;;;2.67;;
5058;SDS011;2548;52.050;11.036;2022-11-03T04:07:53;9.45;;;2.40;;
5058;SDS011;2548;52.050;11.036;2022-11-03T04:10:21;7.78;;;2.35;;
5058;SDS011;2548;52.050;11.036;2022-11-03T04:12:49;6.60;;;2.75;;
5058;SDS011;2548;52.050;11.036;2022-11-03T04:15:35;9.50;;;2.83;;
5058;SDS011;2548;52.050;11.036;2022-11-03T04:18:32;5.53;;;2.53;;
5058;SDS011;2548;52.050;11.036;2022-11-03T04:21:17;11.07;;;3.70;;
5058;SDS011;2548;52.050;11.036;2022-11-03T04:24:02;5.78;;;2.67;;
5058;SDS011;2548;52.050;11.036;2022-11-03T04:26:29;5.78;;;2.50;;
5058;SDS011;2548;52.050;11.036;2022-11-03T04:28:57;5.45;;;2.47;;
5058;SDS011;2548;52.050;11.036;2022-11-03T04:31:27;8.75;;;2.85;;
5058;SDS011;2548;52.050;11.036;2022-11-03T04:33:58;5.10;;;2.20;;
5058;SDS011;2548;52.050;11.036;2022-11-03T04:36:25;9.57;;;2.80;;
5058;SDS011;2548;52.050;11.036;2022-11-03T04:38:53;8.45;;;2.85;;
5058;SDS011;2548;52.050;11.036;2022-11-03T04:41:21;4.55;;;2.70;;
5058;SDS011;2548;52.050;11.036;2022-11-03T04:43:51;5.13;;;2.50;;
5058;SDS011;2548;52.050;11.036;2022-11-03T04:46:22;7.38;;;2.20;;
5058;SDS011;2548;52.050;11.036;2022-11-03T04:48:52;11.38;;;3.08;;
5058;SDS011;2548;52.050;11.036;2022-11-03T04:51:21;6.65;;;2.10;;
5058;SDS011;2548;52.050;11.036;2022-11-03T04:53:51;8.45;;;3.00;;
5058;SDS011;2548;52.050;11.036;2022-11-03T04:56:21;7.15;;;2.42;;
5058;SDS011;2548;52.050;11.036;2022-11-03T04:58:50;5.32;;;2.03;;
5058;SDS011;2548;52.050;11.036;2022-11-03T05:01:18;16.63;;;2.90;;
5058;SDS011;2548;52.050;11.036;2022-11-03T05:03:48;9.75;;;2.95;;
5058;SDS011;2548;52.050;11.036;2022-11-03T05:06:20;11.63;;;2.55;;
5058;SDS011;2548;52.050;11.036;2022-11-03T05:08:49;7.28;;;2.90;;
5058;SDS011;2548;52.050;11.036;2022-11-03T05:11:19;3.88;;;2.70;;
5058;SDS011;2548;52.050;11.036;2022-11-03T05:13:57;8.13;;;2.78;;
5058;SDS011;2548;52.050;11.036;2022-11-03T05:16:26;11.23;;;2.75;;
5058;SDS011;2548;52.050;11.036;2022-11-03T05:18:54;9.20;;;3.50;;
5058;SDS011;2548;52.050;11.036;2022-11-03T05:21:24;8.63;;;3.83;;
5058;SDS011;2548;52.050;11.036;2022-11-03T05:23:53;10.02;;;3.08;;
5058;SDS011;2548;52.050;11.036;2022-11-03T05:26:24;12.07;;;3.05;;
5058;SDS011;2548;52.050;11.036;2022-11-03T05:28:56;9.43;;;3.00;;
5058;SDS011;2548;52.050;11.036;2022-11-03T05:31:26;10.50;;;3.28;;
5058;SDS011;2548;52.050;11.036;2022-11-03T05:33:56;11.13;;;2.50;;
5058;SDS011;2548;52.050;11.036;2022-11-03T05:36:26;10.40;;;2.33;;
5058;SDS011;2548;52.050;11.036;2022-11-03T05:38:57;11.48;;;4.05;;
5058;SDS011;2548;52.050;11.036;2022-11-03T05:41:31;4.20;;;2.65;;
5058;SDS011;2548;52.050;11.036;2022-11-03T05:44:00;4.85;;;2.25;;
5058;SDS011;2548;52.050;11.036;2022-11-03T05:46:36;11.32;;;3.25;;
5058;SDS011;2548;52.050;11.036;2022-11-03T05:49:03;6.38;;;3.38;;
5058;SDS011;2548;52.050;11.036;2022-11-03T05:51:36;4.40;;;2.05;;
5058;SDS011;2548;52.050;11.036;2022-11-03T05:54:06;14.52;;;2.30;;
5058;SDS011;2548;52.050;11.036;2022-11-03T05:56:44;6.60;;;2.75;;
5058;SDS011;2548;52.050;11.036;2022-11-03T05:59:13;11.40;;;2.75;;
5058;SDS011;2548;52.050;11.036;2022-11-03T06:01:44;6.88;;;2.72;;
5058;SDS011;2548;52.050;11.036;2022-11-03T06:04:14;6.40;;;3.78;;
5058;SDS011;2548;52.050;11.036;2022-11-03T06:06:48;14.18;;;3.17;;
5058;SDS011;2548;52.050;11.036;2022-11-03T06:09:20;6.72;;;2.20;;
5058;SDS011;2548;52.050;11.036;2022-11-03T06:11:49;27.00;;;3.90;;
5058;SDS011;2548;52.050;11.036;2022-11-03T06:14:19;6.53;;;2.53;;
5058;SDS011;2548;52.050;11.036;2022-11-03T06:16:48;22.40;;;3.40;;
5058;SDS011;2548;52.050;11.036;2022-11-03T06:19:20;20.88;;;3.53;;
5058;SDS011;2548;52.050;11.036;2022-11-03T06:21:51;8.38;;;2.15;;
5058;SDS011;2548;52.050;11.036;2022-11-03T06:24:20;9.52;;;3.15;;
5058;SDS011;2548;52.050;11.036;2022-11-03T06:26:51;8.57;;;2.90;;
5058;SDS011;2548;52.050;11.036;2022-11-03T06:29:19;3.88;;;2.80;;
5058;SDS011;2548;52.050;11.036;2022-11-03T06:31:48;15.82;;;3.67;;
5058;SDS011;2548;52.050;11.036;2022-11-03T06:34:23;7.38;;;2.83;;
5058;SDS011;2548;52.050;11.036;2022-11-03T06:37:04;6.88;;;2.55;;
5058;SDS011;2548;52.050;11.036;2022-11-03T06:39:39;14.88;;;3.75;;
5058;SDS011;2548;52.050;11.036;2022-11-03T06:42:09;13.60;;;3.35;;
5058;SDS011;2548;52.050;11.036;2022-11-03T06:44:39;7.15;;;2.72;;
5058;SDS011;2548;52.050;11.036;2022-11-03T06:47:13;21.40;;;3.28;;
5058;SDS011;2548;52.050;11.036;2022-11-03T06:49:49;7.05;;;3.30;;
5058;SDS011;2548;52.050;11.036;2022-11-03T06:52:24;13.32;;;4.10;;
5058;SDS011;2548;52.050;11.036;2022-11-03T06:54:54;13.38;;;3.95;;
5058;SDS011;2548;52.050;11.036;2022-11-03T06:57:42;2.63;;;2.40;;
5058;SDS011;2548;52.050;11.036;2022-11-03T07:00:13;6.45;;;2.70;;
5058;SDS011;2548;52.050;11.036;2022-11-03T07:02:49;9.20;;;2.90;;
5058;SDS011;2548;52.050;11.036;2022-11-03T07:05:22;13.07;;;2.42;;
5058;SDS011;2548;52.050;11.036;2022-11-03T07:07:54;13.75;;;2.90;;
5058;SDS011;2548;52.050;11.036;2022-11-03T07:10:23;6.93;;;2.95;;
5058;SDS011;2548;52.050;11.036;2022-11-03T07:12:52;13.65;;;3.10;;
5058;SDS011;2548;52.050;11.036;2022-11-03T07:15:24;7.15;;;2.78;;
5058;SDS011;2548;52.050;11.036;2022-11-03T07:17:54;10.45;;;3.05;;
5058;SDS011;2548;52.050;11.036;2022-11-03T07:20:22;7.53;;;3.40;;
5058;SDS011;2548;52.050;11.036;2022-11-03T07:22:50;7.22;;;3.35;;
5058;SDS011;2548;52.050;11.036;2022-11-03T07:25:21;12.55;;;3.83;;
5058;SDS011;2548;52.050;11.036;2022-11-03T07:27:49;10.23;;;3.85;;
5058;SDS011;2548;52.050;11.036;2022-11-03T07:30:19;5.78;;;3.50;;
5058;SDS011;2548;52.050;11.036;2022-11-03T07:32:48;6.40;;;4.03;;
5058;SDS011;2548;52.050;11.036;2022-11-03T07:35:24;20.23;;;4.30;;
5058;SDS011;2548;52.050;11.036;2022-11-03T07:37:56;11.65;;;3.70;;
5058;SDS011;2548;52.050;11.036;2022-11-03T07:40:27;10.45;;;3.90;;
5058;SDS011;2548;52.050;11.036;2022-11-03T07:42:58;22.90;;;4.65;;
5058;SDS011;2548;52.050;11.036;2022-11-03T07:45:37;9.88;;;3.30;;
5058;SDS011;2548;52.050;11.036;2022-11-03T07:48:17;8.25;;;3.03;;
5058;SDS011;2548;52.050;11.036;2022-11-03T07:50:46;14.63;;;3.75;;
5058;SDS011;2548;52.050;11.036;2022-11-03T07:53:17;10.15;;;3.42;;
5058;SDS011;2548;52.050;11.036;2022-11-03T07:55:47;7.47;;;3.45;;
5058;SDS011;2548;52.050;11.036;2022-11-03T07:58:17;10.75;;;4.53;;
5058;SDS011;2548;52.050;11.036;2022-11-03T08:00:48;8.68;;;3.53;;
5058;SDS011;2548;52.050;11.036;2022-11-03T08:03:21;12.25;;;3.53;;
5058;SDS011;2548;52.050;11.036;2022-11-03T08:05:53;7.63;;;2.90;;
5058;SDS011;2548;52.050;11.036;2022-11-03T08:08:22;6.10;;;2.80;;
5058;SDS011;2548;52.050;11.036;2022-11-03T08:10:49;7.22;;;3.00;;
5058;SDS011;2548;52.050;11.036;2022-11-03T08:13:16;3.05;;;2.33;;
5058;SDS011;2548;52.050;11.036;2022-11-03T08:15:44;9.90;;;3.42;;
5058;SDS011;2548;52.050;11.036;2022-11-03T08:18:11;4.55;;;2.60;;
5058;SDS011;2548;52.050;11.036;2022-11-03T08:20:38;9.82;;;4.28;;
5058;SDS011;2548;52.050;11.036;2022-11-03T08:23:05;9.38;;;4.30;;
5058;SDS011;2548;52.050;11.036;2022-11-03T08:25:34;7.88;;;3.50;;
5058;SDS011;2548;52.050;11.036;2022-11-03T08:28:02;10.30;;;3.25;;
5058;SDS011;2548;52.050;11.036;2022-11-03T08:30:29;6.03;;;3.20;;
5058;SDS011;2548;52.050;11.036;2022-11-03T08:32:58;8.30;;;3.92;;
5058;SDS011;2548;52.050;11.036;2022-11-03T08:35:25;9.63;;;4.43;;
5058;SDS011;2548;52.050;11.036;2022-11-03T08:37:53;8.13;;;3.28;;
5058;SDS011;2548;52.050;11.036;2022-11-03T08:40:20;10.30;;;3.53;;
5058;SDS011;2548;52.050;11.036;2022-11-03T08:42:49;9.45;;;3.00;;
5058;SDS011;2548;52.050;11.036;2022-11-03T08:45:16;6.85;;;3.63;;
5058;SDS011;2548;52.050;11.036;2022-11-03T08:47:43;7.32;;;3.13;;
5058;SDS011;2548;52.050;11.036;2022-11-03T08:50:11;7.65;;;3.28;;
5058;SDS011;2548;52.050;11.036;2022-11-03T08:52:38;15.63;;;3.78;;
5058;SDS011;2548;52.050;11.036;2022-11-03T08:55:06;10.57;;;3.05;;
5058;SDS011;2548;52.050;11.036;2022-11-03T08:57:34;10.50;;;3.30;;
5058;SDS011;2548;52.050;11.036;2022-11-03T09:00:04;9.60;;;4.07;;
5058;SDS011;2548;52.050;11.036;2022-11-03T09:02:32;12.10;;;3.75;;
5058;SDS011;2548;52.050;11.036;2022-11-03T09:04:59;16.52;;;5.05;;
5058;SDS011;2548;52.050;11.036;2022-11-03T09:07:28;10.23;;;4.40;;
5058;SDS011;2548;52.050;11.036;2022-11-03T09:09:55;14.32;;;4.32;;
5058;SDS011;2548;52.050;11.036;2022-11-03T09:12:22;13.00;;;4.30;;
5058;SDS011;2548;52.050;11.036;2022-11-03T09:14:50;8.65;;;4.28;;
5058;SDS011;2548;52.050;11.036;2022-11-03T09:17:18;10.50;;;4.00;;
5058;SDS011;2548;52.050;11.036;2022-11-03T09:19:46;8.45;;;3.40;;
5058;SDS011;2548;52.050;11.036;2022-11-03T09:22:13;8.75;;;3.67;;
5058;SDS011;2548;52.050;11.036;2022-11-03T09:24:40;8.77;;;3.47;;
5058;SDS011;2548;52.050;11.036;2022-11-03T09:27:08;13.93;;;3.70;;
5058;SDS011;2548;52.050;11.036;2022-11-03T09:29:36;11.27;;;4.00;;
5058;SDS011;2548;52.050;11.036;2022-11-03T09:32:03;10.77;;;3.00;;
5058;SDS011;2548;52.050;11.036;2022-11-03T09:34:34;15.70;;;3.40;;
5058;SDS011;2548;52.050;11.036;2022-11-03T09:37:01;15.10;;;4.13;;
5058;SDS011;2548;52.050;11.036;2022-11-03T09:39:28;11.27;;;3.88;;
5058;SDS011;2548;52.050;11.036;2022-11-03T09:41:56;14.65;;;3.45;;
5058;SDS011;2548;52.050;11.036;2022-11-03T09:44:24;13.93;;;4.38;;
5058;SDS011;2548;52.050;11.036;2022-11-03T09:46:52;13.55;;;3.72;;
5058;SDS011;2548;52.050;11.036;2022-11-03T09:49:20;10.10;;;3.85;;
5058;SDS011;2548;52.050;11.036;2022-11-03T09:51:49;11.52;;;3.75;;
5058;SDS011;2548;52.050;11.036;2022-11-03T09:54:16;12.15;;;3.35;;
5058;SDS011;2548;52.050;11.036;2022-11-03T09:56:43;9.18;;;3.92;;
5058;SDS011;2548;52.050;11.036;2022-11-03T09:59:12;14.88;;;2.88;;
5058;SDS011;2548;52.050;11.036;2022-11-03T10:01:41;13.30;;;3.83;;
5058;SDS011;2548;52.050;11.036;2022-11-03T10:04:11;13.35;;;3.72;;
5058;SDS011;2548;52.050;11.036;2022-11-03T10:06:39;10.32;;;3.03;;
5058;SDS011;2548;52.050;11.036;2022-11-03T10:09:09;8.23;;;3.42;;
5058;SDS011;2548;52.050;11.036;2022-11-03T10:11:40;10.93;;;3.10;;
5058;SDS011;2548;52.050;11.036;2022-11-03T10:14:08;7.90;;;3.03;;
5058;SDS011;2548;52.050;11.036;2022-11-03T10:16:39;8.80;;;3.85;;
5058;SDS011;2548;52.050;11.036;2022-11-03T10:19:08;10.75;;;3.75;;
5058;SDS011;2548;52.050;11.036;2022-11-03T10:21:37;4.80;;;3.10;;
5058;SDS011;2548;52.050;11.036;2022-11-03T10:24:09;6.60;;;3.35;;
5058;SDS011;2548;52.050;11.036;2022-11-03T10:26:42;8.07;;;4.30;;
5058;SDS011;2548;52.050;11.036;2022-11-03T10:29:15;8.13;;;3.00;;
5058;SDS011;2548;52.050;11.036;2022-11-03T10:31:45;9.85;;;4.80;;
5058;SDS011;2548;52.050;11.036;2022-11-03T10:34:22;8.75;;;4.18;;
5058;SDS011;2548;52.050;11.036;2022-11-03T10:37:17;10.57;;;3.50;;
5058;SDS011;2548;52.050;11.036;2022-11-03T10:39:49;10.63;;;3.28;;
5058;SDS011;2548;52.050;11.036;2022-11-03T10:42:19;4.93;;;3.03;;
5058;SDS011;2548;52.050;11.036;2022-11-03T10:44:48;7.95;;;3.38;;
5058;SDS011;2548;52.050;11.036;2022-11-03T10:47:22;8.80;;;3.55;;
5058;SDS011;2548;52.050;11.036;2022-11-03T10:49:51;16.20;;;4.78;;
5058;SDS011;2548;52.050;11.036;2022-11-03T10:52:20;10.68;;;3.35;;
5058;SDS011;2548;52.050;11.036;2022-11-03T10:54:51;11.23;;;3.97;;
5058;SDS011;2548;52.050;11.036;2022-11-03T10:57:20;5.60;;;3.72;;
5058;SDS011;2548;52.050;11.036;2022-11-03T10:59:49;7.20;;;4.65;;
5058;SDS011;2548;52.050;11.036;2022-11-03T11:02:19;4.35;;;3.10;;
5058;SDS011;2548;52.050;11.036;2022-11-03T11:04:48;6.55;;;3.20;;
5058;SDS011;2548;52.050;11.036;2022-11-03T11:07:22;7.03;;;3.00;;
5058;SDS011;2548;52.050;11.036;2022-11-03T11:09:53;10.38;;;3.35;;
5058;SDS011;2548;52.050;11.036;2022-11-03T11:12:21;7.75;;;2.83;;
5058;SDS011;2548;52.050;11.036;2022-11-03T11:14:50;12.75;;;3.53;;
5058;SDS011;2548;52.050;11.036;2022-11-03T11:17:38;9.30;;;3.28;;
5058;SDS011;2548;52.050;11.036;2022-11-03T11:26:14;9.38;;;2.38;;
5058;SDS011;2548;52.050;11.036;2022-11-03T11:28:43;6.88;;;3.20;;
5058;SDS011;2548;52.050;11.036;2022-11-03T11:34:37;7.45;;;2.53;;
5058;SDS011;2548;52.050;11.036;2022-11-03T11:39:59;7.00;;;2.55;;
5058;SDS011;2548;52.050;11.036;2022-11-03T11:42:28;12.43;;;3.53;;
5058;SDS011;2548;52.050;11.036;2022-11-03T11:44:56;4.03;;;2.15;;
5058;SDS011;2548;52.050;11.036;2022-11-03T11:47:48;7.13;;;3.25;;
5058;SDS011;2548;52.050;11.036;2022-11-03T11:50:26;3.45;;;2.15;;
5058;SDS011;2548;52.050;11.036;2022-11-03T11:52:58;3.88;;;2.30;;
5058;SDS011;2548;52.050;11.036;2022-11-03T11:55:36;5.90;;;2.63;;
5058;SDS011;2548;52.050;11.036;2022-11-03T12:01:04;9.68;;;3.10;;
5058;SDS011;2548;52.050;11.036;2022-11-03T12:03:45;3.35;;;2.47;;
5058;SDS011;2548;52.050;11.036;2022-11-03T12:06:13;11.75;;;2.53;;
5058;SDS011;2548;52.050;11.036;2022-11-03T12:08:41;6.35;;;1.85;;
5058;SDS011;2548;52.050;11.036;2022-11-03T12:11:09;6.80;;;2.78;;
5058;SDS011;2548;52.050;11.036;2022-11-03T12:13:46;3.63;;;1.98;;
5058;SDS011;2548;52.050;11.036;2022-11-03T12:16:28;10.00;;;2.83;;
5058;SDS011;2548;52.050;11.036;2022-11-03T12:25:05;5.80;;;2.40;;
5058;SDS011;2548;52.050;11.036;2022-11-03T12:27:59;6.68;;;2.50;;
5058;SDS011;2548;52.050;11.036;2022-11-03T12:30:28;4.20;;;1.92;;
5058;SDS011;2548;52.050;11.036;2022-11-03T12:32:56;4.50;;;2.20;;
5058;SDS011;2548;52.050;11.036;2022-11-03T12:35:23;9.45;;;3.05;;
5058;SDS011;2548;52.050;11.036;2022-11-03T12:37:50;3.63;;;2.30;;
5058;SDS011;2548;52.050;11.036;2022-11-03T12:40:18;6.20;;;1.92;;
5058;SDS011;2548;52.050;11.036;2022-11-03T12:42:45;7.05;;;3.70;;
5058;SDS011;2548;52.050;11.036;2022-11-03T12:45:12;4.53;;;2.22;;
5058;SDS011;2548;52.050;11.036;2022-11-03T12:47:41;5.10;;;1.95;;
5058;SDS011;2548;52.050;11.036;2022-11-03T12:50:08;3.00;;;2.00;;
5058;SDS011;2548;52.050;11.036;2022-11-03T12:52:36;8.32;;;2.67;;
5058;SDS011;2548;52.050;11.036;2022-11-03T12:55:04;5.88;;;2.15;;
5058;SDS011;2548;52.050;11.036;2022-11-03T12:57:31;11.10;;;2.45;;
5058;SDS011;2548;52.050;11.036;2022-11-03T12:59:58;7.68;;;2.47;;
5058;SDS011;2548;52.050;11.036;2022-11-03T13:02:26;8.07;;;4.28;;
5058;SDS011;2548;52.050;11.036;2022-11-03T13:04:54;5.32;;;2.30;;
5058;SDS011;2548;52.050;11.036;2022-11-03T13:07:22;12.30;;;3.17;;
5058;SDS011;2548;52.050;11.036;2022-11-03T13:09:49;2.92;;;2.67;;
5058;SDS011;2548;52.050;11.036;2022-11-03T13:12:16;10.13;;;2.30;;
5058;SDS011;2548;52.050;11.036;2022-11-03T13:15:02;7.63;;;3.42;;
5058;SDS011;2548;52.050;11.036;2022-11-03T13:17:30;6.13;;;2.08;;
5058;SDS011;2548;52.050;11.036;2022-11-03T13:19:59;5.05;;;2.25;;
5058;SDS011;2548;52.050;11.036;2022-11-03T13:22:27;14.60;;;3.63;;
5058;SDS011;2548;52.050;11.036;2022-11-03T13:24:54;6.53;;;2.70;;
5058;SDS011;2548;52.050;11.036;2022-11-03T13:27:22;6.72;;;2.67;;
5058;SDS011;2548;52.050;11.036;2022-11-03T13:29:49;10.43;;;4.25;;
5058;SDS011;2548;52.050;11.036;2022-11-03T13:32:16;6.18;;;3.00;;
5058;SDS011;2548;52.050;11.036;2022-11-03T13:34:44;9.65;;;2.95;;
5058;SDS011;2548;52.050;11.036;2022-11-03T13:37:12;6.05;;;3.15;;
5058;SDS011;2548;52.050;11.036;2022-11-03T13:39:40;7.00;;;2.97;;
5058;SDS011;2548;52.050;11.036;2022-11-03T13:42:07;12.13;;;3.30;;
5058;SDS011;2548;52.050;11.036;2022-11-03T13:44:34;7.68;;;2.75;;
5058;SDS011;2548;52.050;11.036;2022-11-03T13:47:02;8.50;;;3.17;;
5058;SDS011;2548;52.050;11.036;2022-11-03T13:49:30;7.43;;;2.60;;
5058;SDS011;2548;52.050;11.036;2022-11-03T13:51:57;6.68;;;2.35;;
5058;SDS011;2548;52.050;11.036;2022-11-03T13:54:26;4.45;;;2.85;;
5058;SDS011;2548;52.050;11.036;2022-11-03T13:56:53;6.15;;;3.42;;
5058;SDS011;2548;52.050;11.036;2022-11-03T13:59:20;7.45;;;2.83;;
5058;SDS011;2548;52.050;11.036;2022-11-03T14:01:48;12.15;;;2.70;;
5058;SDS011;2548;52.050;11.036;2022-11-03T14:04:15;5.72;;;3.00;;
5058;SDS011;2548;52.050;11.036;2022-11-03T14:06:42;10.77;;;2.50;;
5058;SDS011;2548;52.050;11.036;2022-11-03T14:09:10;12.93;;;5.65;;
5058;SDS011;2548;52.050;11.036;2022-11-03T14:11:38;14.23;;;6.80;;
5058;SDS011;2548;52.050;11.036;2022-11-03T14:14:23;46.70;;;22.25;;
5058;SDS011;2548;52.050;11.036;2022-11-03T14:16:51;87.43;;;36.47;;
5058;SDS011;2548;52.050;11.036;2022-11-03T14:19:18;74.32;;;33.97;;
5058;SDS011;2548;52.050;11.036;2022-11-03T14:21:45;46.17;;;23.15;;
5058;SDS011;2548;52.050;11.036;2022-11-03T14:24:13;90.22;;;45.53;;
5058;SDS011;2548;52.050;11.036;2022-11-03T14:26:42;55.80;;;33.38;;
5058;SDS011;2548;52.050;11.036;2022-11-03T14:29:09;45.20;;;22.00;;
5058;SDS011;2548;52.050;11.036;2022-11-03T14:31:36;18.00;;;8.07;;
5058;SDS011;2548;52.050;11.036;2022-11-03T14:34:04;18.00;;;12.77;;
5058;SDS011;2548;52.050;11.036;2022-11-03T14:36:31;6.68;;;4.55;;
5058;SDS011;2548;52.050;11.036;2022-11-03T14:38:58;14.77;;;5.05;;
5058;SDS011;2548;52.050;11.036;2022-11-03T14:41:26;14.32;;;6.15;;
5058;SDS011;2548;52.050;11.036;2022-11-03T14:44:12;21.52;;;4.95;;
5058;SDS011;2548;52.050;11.036;2022-11-03T14:46:40;8.40;;;4.60;;
5058;SDS011;2548;52.050;11.036;2022-11-03T14:49:07;9.50;;;6.28;;
5058;SDS011;2548;52.050;11.036;2022-11-03T14:51:34;10.68;;;7.57;;
5058;SDS011;2548;52.050;11.036;2022-11-03T14:54:02;7.40;;;4.30;;
5058;SDS011;2548;52.050;11.036;2022-11-03T14:56:29;20.27;;;3.92;;
5058;SDS011;2548;52.050;11.036;2022-11-03T14:58:56;10.05;;;4.22;;
5058;SDS011;2548;52.050;11.036;2022-11-03T15:01:25;10.80;;;3.22;;
5058;SDS011;2548;52.050;11.036;2022-11-03T15:03:52;10.70;;;3.00;;
5058;SDS011;2548;52.050;11.036;2022-11-03T15:06:20;9.50;;;2.90;;
5058;SDS011;2548;52.050;11.036;2022-11-03T15:08:47;13.32;;;7.68;;
5058;SDS011;2548;52.050;11.036;2022-11-03T15:11:14;17.40;;;11.18;;
5058;SDS011;2548;52.050;11.036;2022-11-03T15:13:42;10.23;;;6.05;;
5058;SDS011;2548;52.050;11.036;2022-11-03T15:16:09;14.45;;;7.07;;
5058;SDS011;2548;52.050;11.036;2022-11-03T15:18:38;7.63;;;4.20;;
5058;SDS011;2548;52.050;11.036;2022-11-03T15:21:06;12.60;;;8.75;;
5058;SDS011;2548;52.050;11.036;2022-11-03T15:23:33;12.93;;;9.18;;
5058;SDS011;2548;52.050;11.036;2022-11-03T15:26:00;5.70;;;4.18;;
5058;SDS011;2548;52.050;11.036;2022-11-03T15:28:28;4.65;;;3.70;;
5058;SDS011;2548;52.050;11.036;2022-11-03T15:30:55;8.85;;;3.95;;
5058;SDS011;2548;52.050;11.036;2022-11-03T15:33:22;5.00;;;4.47;;
5058;SDS011;2548;52.050;11.036;2022-11-03T15:35:51;6.28;;;4.65;;